Alpha, Idaho
Current Conditions -  °F | °C
As of 11:51 AM on Monday 20 Oct 2014 (Local Time) from KMYL Reporting Station
Clear Clear  
Wind Chill: 57°   Ceiling: Unl
Heat Index: 57°   Visibility: 10mi
Dew Point: 34°   Wind: 0mph
Humidity: 42%   Direction: NA
Pressure: 29.92"   Gusts: NA
Location:  44.4236°N, 115.8°W
Report Text: KMYL 201751Z AUTO 00000KT 10SM CLR 14/01 A2992 RMK AO2 SLP118 T01390011 10139 21011 58005
Loading
Personal Weather Stations






























Interactive Weather Map
Tropical Storm Tracking
New forecast layout! Learn more

10-Day Weather Forecast

Advertisements
Track Severe Weather on mobile